KPBG/PBG METAR and TAF weather

Enter ICAO airport designator
Station Type Date Time Source
KPBG METAR 2018/12/15 03:53 UTC NOAA

KPBG 150353Z AUTO 20003KT 9SM FEW038 OVC050 02/02 A3010 RMK AO2 SLP195 T00220017


Station Type Date Time Source
KPBG Decoded METAR 2018/12/15 03:53 UTC NOAA

PLATTSBURGH INTERNATIONAL AIRPORT, NY, United States (KPBG) 44-39N 073-28W
Dec 14, 2018 - 10:53 PM EST / 2018.12.15 0353 UTC
Wind: from the SSW (200 degrees) at 3 MPH (3 KT):0
Visibility: 9 mile(s):0
Sky conditions: overcast
Temperature: 36.0 F (2.2 C)
Dew Point: 35.1 F (1.7 C)
Relative Humidity: 96%
Pressure (altimeter): 30.1 in. Hg (1019 hPa)
ob: KPBG 150353Z AUTO 20003KT 9SM FEW038 OVC050 02/02 A3010 RMK AO2 SLP195 T00220017
cycle: 4

Station Type Date Time Source
KPBG TAF 2018/12/14 18:36 UTC NOAA

TAF KPBG 141731Z 1418/1518 17007KT P6SM FEW028 OVC040
FM142100 17010KT P6SM VCSH SCT028 OVC045
TEMPO 1421/1501 -SHRA BKN028
FM150700 VRB04KT P6SM BKN025
FM151200 35006KT P6SM BKN050 OVC080


Example: see airport list